sensor_id;sensor_type;location;lat;lon;timestamp;P1;durP1;ratioP1;P2;durP2;ratioP2
39094;SDS011;24840;47.508;19.376;2023-12-29T00:01:16;53.20;;;36.00;;
39094;SDS011;24840;47.508;19.376;2023-12-29T00:03:43;51.53;;;34.03;;
39094;SDS011;24840;47.508;19.376;2023-12-29T00:06:09;43.70;;;29.23;;
39094;SDS011;24840;47.508;19.376;2023-12-29T00:08:36;47.53;;;30.17;;
39094;SDS011;24840;47.508;19.376;2023-12-29T00:11:02;43.50;;;29.93;;
39094;SDS011;24840;47.508;19.376;2023-12-29T00:13:28;41.73;;;30.07;;
39094;SDS011;24840;47.508;19.376;2023-12-29T00:15:54;39.97;;;27.50;;
39094;SDS011;24840;47.508;19.376;2023-12-29T00:18:21;40.13;;;26.13;;
39094;SDS011;24840;47.508;19.376;2023-12-29T00:20:47;47.00;;;28.03;;
39094;SDS011;24840;47.508;19.376;2023-12-29T00:23:13;38.67;;;26.50;;
39094;SDS011;24840;47.508;19.376;2023-12-29T00:25:40;34.70;;;24.20;;
39094;SDS011;24840;47.508;19.376;2023-12-29T00:28:06;34.17;;;24.50;;
39094;SDS011;24840;47.508;19.376;2023-12-29T00:30:32;34.90;;;24.97;;
39094;SDS011;24840;47.508;19.376;2023-12-29T00:32:58;40.23;;;23.97;;
39094;SDS011;24840;47.508;19.376;2023-12-29T00:35:24;35.07;;;23.57;;
39094;SDS011;24840;47.508;19.376;2023-12-29T00:37:50;32.77;;;23.53;;
39094;SDS011;24840;47.508;19.376;2023-12-29T00:40:16;53.77;;;34.43;;
39094;SDS011;24840;47.508;19.376;2023-12-29T00:42:42;58.00;;;39.23;;
39094;SDS011;24840;47.508;19.376;2023-12-29T00:45:08;60.43;;;39.10;;
39094;SDS011;24840;47.508;19.376;2023-12-29T00:47:34;63.83;;;40.37;;
39094;SDS011;24840;47.508;19.376;2023-12-29T00:50:01;69.83;;;40.70;;
39094;SDS011;24840;47.508;19.376;2023-12-29T00:52:28;64.87;;;43.07;;
39094;SDS011;24840;47.508;19.376;2023-12-29T00:54:54;62.17;;;38.77;;
39094;SDS011;24840;47.508;19.376;2023-12-29T00:57:20;62.27;;;39.50;;
39094;SDS011;24840;47.508;19.376;2023-12-29T00:59:46;67.77;;;41.27;;
39094;SDS011;24840;47.508;19.376;2023-12-29T01:02:12;68.70;;;44.70;;
39094;SDS011;24840;47.508;19.376;2023-12-29T01:04:38;68.57;;;40.70;;
39094;SDS011;24840;47.508;19.376;2023-12-29T01:07:04;63.50;;;40.17;;
39094;SDS011;24840;47.508;19.376;2023-12-29T01:09:30;66.20;;;38.97;;
39094;SDS011;24840;47.508;19.376;2023-12-29T01:11:57;63.87;;;41.17;;
39094;SDS011;24840;47.508;19.376;2023-12-29T01:14:23;62.13;;;37.37;;
39094;SDS011;24840;47.508;19.376;2023-12-29T01:16:49;62.10;;;40.83;;
39094;SDS011;24840;47.508;19.376;2023-12-29T01:19:15;62.73;;;38.80;;
39094;SDS011;24840;47.508;19.376;2023-12-29T01:21:41;61.27;;;38.80;;
39094;SDS011;24840;47.508;19.376;2023-12-29T01:24:07;63.33;;;40.60;;
39094;SDS011;24840;47.508;19.376;2023-12-29T01:26:37;71.53;;;42.20;;
39094;SDS011;24840;47.508;19.376;2023-12-29T01:29:04;76.67;;;41.83;;
39094;SDS011;24840;47.508;19.376;2023-12-29T01:31:30;70.20;;;44.43;;
39094;SDS011;24840;47.508;19.376;2023-12-29T01:33:56;64.50;;;39.93;;
39094;SDS011;24840;47.508;19.376;2023-12-29T01:36:22;73.63;;;40.70;;
39094;SDS011;24840;47.508;19.376;2023-12-29T01:38:48;72.27;;;44.67;;
39094;SDS011;24840;47.508;19.376;2023-12-29T01:41:15;71.57;;;40.77;;
39094;SDS011;24840;47.508;19.376;2023-12-29T01:46:23;66.50;;;40.97;;
39094;SDS011;24840;47.508;19.376;2023-12-29T01:48:49;66.43;;;39.90;;
39094;SDS011;24840;47.508;19.376;2023-12-29T01:51:15;59.57;;;36.20;;
39094;SDS011;24840;47.508;19.376;2023-12-29T01:53:43;55.27;;;34.73;;
39094;SDS011;24840;47.508;19.376;2023-12-29T01:56:09;36.90;;;26.13;;
39094;SDS011;24840;47.508;19.376;2023-12-29T01:58:36;32.77;;;23.17;;
39094;SDS011;24840;47.508;19.376;2023-12-29T02:01:02;30.60;;;21.00;;
39094;SDS011;24840;47.508;19.376;2023-12-29T02:03:29;35.90;;;23.33;;
39094;SDS011;24840;47.508;19.376;2023-12-29T02:05:55;46.57;;;26.23;;
39094;SDS011;24840;47.508;19.376;2023-12-29T02:08:21;35.47;;;24.50;;
39094;SDS011;24840;47.508;19.376;2023-12-29T02:10:48;32.40;;;23.37;;
39094;SDS011;24840;47.508;19.376;2023-12-29T02:13:14;33.70;;;24.63;;
39094;SDS011;24840;47.508;19.376;2023-12-29T02:15:40;55.30;;;34.03;;
39094;SDS011;24840;47.508;19.376;2023-12-29T02:18:07;56.37;;;34.70;;
39094;SDS011;24840;47.508;19.376;2023-12-29T02:20:36;54.93;;;35.17;;
39094;SDS011;24840;47.508;19.376;2023-12-29T02:23:03;64.53;;;39.30;;
39094;SDS011;24840;47.508;19.376;2023-12-29T02:25:29;72.80;;;42.07;;
39094;SDS011;24840;47.508;19.376;2023-12-29T02:28:15;66.40;;;39.43;;
39094;SDS011;24840;47.508;19.376;2023-12-29T02:30:48;54.60;;;35.07;;
39094;SDS011;24840;47.508;19.376;2023-12-29T02:33:19;52.73;;;33.10;;
39094;SDS011;24840;47.508;19.376;2023-12-29T02:35:45;48.07;;;32.43;;
39094;SDS011;24840;47.508;19.376;2023-12-29T02:38:12;49.57;;;32.07;;
39094;SDS011;24840;47.508;19.376;2023-12-29T02:40:39;41.10;;;27.60;;
39094;SDS011;24840;47.508;19.376;2023-12-29T02:43:05;39.80;;;27.93;;
39094;SDS011;24840;47.508;19.376;2023-12-29T02:45:34;40.90;;;26.50;;
39094;SDS011;24840;47.508;19.376;2023-12-29T02:48:00;43.73;;;29.73;;
39094;SDS011;24840;47.508;19.376;2023-12-29T02:50:26;51.93;;;32.50;;
39094;SDS011;24840;47.508;19.376;2023-12-29T02:52:52;52.63;;;34.07;;
39094;SDS011;24840;47.508;19.376;2023-12-29T02:55:18;46.67;;;32.50;;
39094;SDS011;24840;47.508;19.376;2023-12-29T02:57:44;53.97;;;33.50;;
39094;SDS011;24840;47.508;19.376;2023-12-29T03:00:10;50.73;;;30.83;;
39094;SDS011;24840;47.508;19.376;2023-12-29T03:02:37;50.40;;;33.57;;
39094;SDS011;24840;47.508;19.376;2023-12-29T03:05:03;53.50;;;33.53;;
39094;SDS011;24840;47.508;19.376;2023-12-29T03:07:29;48.00;;;32.73;;
39094;SDS011;24840;47.508;19.376;2023-12-29T03:09:55;50.03;;;32.93;;
39094;SDS011;24840;47.508;19.376;2023-12-29T03:12:21;44.33;;;30.27;;
39094;SDS011;24840;47.508;19.376;2023-12-29T03:14:47;39.20;;;29.07;;
39094;SDS011;24840;47.508;19.376;2023-12-29T03:17:13;40.63;;;29.13;;
39094;SDS011;24840;47.508;19.376;2023-12-29T03:19:39;44.43;;;28.07;;
39094;SDS011;24840;47.508;19.376;2023-12-29T03:22:05;47.27;;;28.60;;
39094;SDS011;24840;47.508;19.376;2023-12-29T03:24:31;44.33;;;29.33;;
39094;SDS011;24840;47.508;19.376;2023-12-29T03:27:01;41.63;;;29.07;;
39094;SDS011;24840;47.508;19.376;2023-12-29T03:29:48;38.27;;;25.67;;
39094;SDS011;24840;47.508;19.376;2023-12-29T03:32:14;42.77;;;27.10;;
39094;SDS011;24840;47.508;19.376;2023-12-29T03:34:44;37.23;;;25.93;;
39094;SDS011;24840;47.508;19.376;2023-12-29T03:37:10;47.73;;;29.60;;
39094;SDS011;24840;47.508;19.376;2023-12-29T03:39:36;45.57;;;29.70;;
39094;SDS011;24840;47.508;19.376;2023-12-29T03:42:02;46.07;;;28.53;;
39094;SDS011;24840;47.508;19.376;2023-12-29T03:44:28;45.00;;;29.37;;
39094;SDS011;24840;47.508;19.376;2023-12-29T03:46:54;46.07;;;30.13;;
39094;SDS011;24840;47.508;19.376;2023-12-29T03:49:20;53.23;;;31.60;;
39094;SDS011;24840;47.508;19.376;2023-12-29T03:51:46;63.40;;;33.93;;
39094;SDS011;24840;47.508;19.376;2023-12-29T03:54:12;72.17;;;36.33;;
39094;SDS011;24840;47.508;19.376;2023-12-29T03:56:38;83.90;;;42.23;;
39094;SDS011;24840;47.508;19.376;2023-12-29T03:59:04;75.57;;;40.67;;
39094;SDS011;24840;47.508;19.376;2023-12-29T04:01:32;73.70;;;39.27;;
39094;SDS011;24840;47.508;19.376;2023-12-29T04:03:58;76.77;;;40.83;;
39094;SDS011;24840;47.508;19.376;2023-12-29T04:06:24;80.70;;;38.40;;
39094;SDS011;24840;47.508;19.376;2023-12-29T04:08:50;74.77;;;39.03;;
39094;SDS011;24840;47.508;19.376;2023-12-29T04:11:16;74.53;;;40.13;;
39094;SDS011;24840;47.508;19.376;2023-12-29T04:13:42;72.73;;;39.63;;
39094;SDS011;24840;47.508;19.376;2023-12-29T04:16:08;70.57;;;38.50;;
39094;SDS011;24840;47.508;19.376;2023-12-29T04:18:34;72.23;;;38.57;;
39094;SDS011;24840;47.508;19.376;2023-12-29T04:21:00;68.77;;;37.13;;
39094;SDS011;24840;47.508;19.376;2023-12-29T04:23:27;75.40;;;37.83;;
39094;SDS011;24840;47.508;19.376;2023-12-29T04:25:53;60.37;;;36.23;;
39094;SDS011;24840;47.508;19.376;2023-12-29T04:28:19;59.30;;;34.50;;
39094;SDS011;24840;47.508;19.376;2023-12-29T04:30:45;55.63;;;32.33;;
39094;SDS011;24840;47.508;19.376;2023-12-29T04:33:11;56.70;;;31.70;;
39094;SDS011;24840;47.508;19.376;2023-12-29T04:35:37;57.40;;;33.40;;
39094;SDS011;24840;47.508;19.376;2023-12-29T04:38:03;53.07;;;30.37;;
39094;SDS011;24840;47.508;19.376;2023-12-29T04:40:31;53.17;;;32.23;;
39094;SDS011;24840;47.508;19.376;2023-12-29T04:42:57;51.77;;;29.97;;
39094;SDS011;24840;47.508;19.376;2023-12-29T04:45:23;41.27;;;26.13;;
39094;SDS011;24840;47.508;19.376;2023-12-29T04:47:49;48.57;;;29.73;;
39094;SDS011;24840;47.508;19.376;2023-12-29T04:50:15;42.50;;;26.10;;
39094;SDS011;24840;47.508;19.376;2023-12-29T04:52:41;41.07;;;23.90;;
39094;SDS011;24840;47.508;19.376;2023-12-29T04:55:07;34.53;;;21.37;;
39094;SDS011;24840;47.508;19.376;2023-12-29T04:57:33;32.80;;;20.63;;
39094;SDS011;24840;47.508;19.376;2023-12-29T04:59:59;30.17;;;20.63;;
39094;SDS011;24840;47.508;19.376;2023-12-29T05:02:26;33.63;;;22.27;;
39094;SDS011;24840;47.508;19.376;2023-12-29T05:04:52;38.40;;;23.70;;
39094;SDS011;24840;47.508;19.376;2023-12-29T05:07:18;39.23;;;24.70;;
39094;SDS011;24840;47.508;19.376;2023-12-29T05:09:44;40.50;;;25.83;;
39094;SDS011;24840;47.508;19.376;2023-12-29T05:12:10;40.40;;;23.93;;
39094;SDS011;24840;47.508;19.376;2023-12-29T05:14:36;37.30;;;23.20;;
39094;SDS011;24840;47.508;19.376;2023-12-29T05:17:02;28.23;;;19.03;;
39094;SDS011;24840;47.508;19.376;2023-12-29T05:19:28;26.23;;;17.43;;
39094;SDS011;24840;47.508;19.376;2023-12-29T05:21:54;24.17;;;16.47;;
39094;SDS011;24840;47.508;19.376;2023-12-29T05:24:20;26.87;;;19.97;;
39094;SDS011;24840;47.508;19.376;2023-12-29T05:26:46;37.43;;;22.17;;
39094;SDS011;24840;47.508;19.376;2023-12-29T05:29:12;35.10;;;22.73;;
39094;SDS011;24840;47.508;19.376;2023-12-29T05:31:38;38.13;;;23.80;;
39094;SDS011;24840;47.508;19.376;2023-12-29T05:34:04;33.90;;;22.40;;
39094;SDS011;24840;47.508;19.376;2023-12-29T05:36:30;35.40;;;23.57;;
39094;SDS011;24840;47.508;19.376;2023-12-29T05:39:01;30.97;;;20.97;;
39094;SDS011;24840;47.508;19.376;2023-12-29T05:41:27;32.63;;;20.27;;
39094;SDS011;24840;47.508;19.376;2023-12-29T05:43:53;31.50;;;19.07;;
39094;SDS011;24840;47.508;19.376;2023-12-29T05:46:19;36.50;;;20.50;;
39094;SDS011;24840;47.508;19.376;2023-12-29T05:48:46;28.63;;;16.97;;
39094;SDS011;24840;47.508;19.376;2023-12-29T05:51:13;22.17;;;16.07;;
39094;SDS011;24840;47.508;19.376;2023-12-29T05:53:39;24.67;;;14.90;;
39094;SDS011;24840;47.508;19.376;2023-12-29T05:56:05;23.13;;;15.03;;
39094;SDS011;24840;47.508;19.376;2023-12-29T05:58:31;19.43;;;14.03;;
39094;SDS011;24840;47.508;19.376;2023-12-29T06:00:58;16.13;;;12.77;;
39094;SDS011;24840;47.508;19.376;2023-12-29T06:03:25;19.13;;;13.30;;
39094;SDS011;24840;47.508;19.376;2023-12-29T06:05:51;21.10;;;13.70;;
39094;SDS011;24840;47.508;19.376;2023-12-29T06:08:18;19.27;;;13.63;;
39094;SDS011;24840;47.508;19.376;2023-12-29T06:10:44;21.87;;;14.40;;
39094;SDS011;24840;47.508;19.376;2023-12-29T06:13:10;19.03;;;13.80;;
39094;SDS011;24840;47.508;19.376;2023-12-29T06:15:36;19.33;;;13.53;;
39094;SDS011;24840;47.508;19.376;2023-12-29T06:18:02;19.10;;;11.67;;
39094;SDS011;24840;47.508;19.376;2023-12-29T06:20:28;16.93;;;12.77;;
39094;SDS011;24840;47.508;19.376;2023-12-29T06:22:55;17.73;;;12.80;;
39094;SDS011;24840;47.508;19.376;2023-12-29T06:25:21;14.53;;;11.53;;
39094;SDS011;24840;47.508;19.376;2023-12-29T06:27:47;14.20;;;10.57;;
39094;SDS011;24840;47.508;19.376;2023-12-29T06:30:13;16.27;;;11.53;;
39094;SDS011;24840;47.508;19.376;2023-12-29T06:32:40;21.33;;;12.23;;
39094;SDS011;24840;47.508;19.376;2023-12-29T06:35:06;15.10;;;11.27;;
39094;SDS011;24840;47.508;19.376;2023-12-29T06:37:32;17.17;;;13.23;;
39094;SDS011;24840;47.508;19.376;2023-12-29T06:39:58;15.70;;;11.67;;
39094;SDS011;24840;47.508;19.376;2023-12-29T06:42:25;13.33;;;10.37;;
39094;SDS011;24840;47.508;19.376;2023-12-29T06:44:52;14.43;;;10.90;;
39094;SDS011;24840;47.508;19.376;2023-12-29T06:47:18;17.07;;;11.53;;
39094;SDS011;24840;47.508;19.376;2023-12-29T06:49:44;15.13;;;11.63;;
39094;SDS011;24840;47.508;19.376;2023-12-29T06:52:10;15.10;;;11.27;;
39094;SDS011;24840;47.508;19.376;2023-12-29T06:54:36;11.37;;;9.73;;
39094;SDS011;24840;47.508;19.376;2023-12-29T06:57:02;13.07;;;9.77;;
39094;SDS011;24840;47.508;19.376;2023-12-29T06:59:28;14.77;;;11.43;;
39094;SDS011;24840;47.508;19.376;2023-12-29T07:01:54;14.50;;;11.67;;
39094;SDS011;24840;47.508;19.376;2023-12-29T07:04:20;14.33;;;11.17;;
39094;SDS011;24840;47.508;19.376;2023-12-29T07:06:46;15.00;;;10.13;;
39094;SDS011;24840;47.508;19.376;2023-12-29T07:09:12;13.43;;;10.03;;
39094;SDS011;24840;47.508;19.376;2023-12-29T07:11:38;13.73;;;10.87;;
39094;SDS011;24840;47.508;19.376;2023-12-29T07:14:04;14.27;;;11.47;;
39094;SDS011;24840;47.508;19.376;2023-12-29T07:16:30;16.57;;;11.17;;
39094;SDS011;24840;47.508;19.376;2023-12-29T07:18:56;16.33;;;11.73;;
39094;SDS011;24840;47.508;19.376;2023-12-29T07:21:22;14.17;;;11.20;;
39094;SDS011;24840;47.508;19.376;2023-12-29T07:23:48;14.47;;;10.93;;
39094;SDS011;24840;47.508;19.376;2023-12-29T07:26:14;18.07;;;13.47;;
39094;SDS011;24840;47.508;19.376;2023-12-29T07:28:40;13.73;;;11.10;;
39094;SDS011;24840;47.508;19.376;2023-12-29T07:31:06;16.13;;;11.10;;
39094;SDS011;24840;47.508;19.376;2023-12-29T07:33:33;14.60;;;11.17;;
39094;SDS011;24840;47.508;19.376;2023-12-29T07:35:59;25.13;;;15.80;;
39094;SDS011;24840;47.508;19.376;2023-12-29T07:38:25;22.20;;;15.50;;
39094;SDS011;24840;47.508;19.376;2023-12-29T07:40:51;17.67;;;10.73;;
39094;SDS011;24840;47.508;19.376;2023-12-29T07:43:17;150.33;;;20.03;;
39094;SDS011;24840;47.508;19.376;2023-12-29T07:45:44;26.97;;;11.50;;
39094;SDS011;24840;47.508;19.376;2023-12-29T07:48:10;24.87;;;11.57;;
39094;SDS011;24840;47.508;19.376;2023-12-29T07:50:36;13.50;;;10.80;;
39094;SDS011;24840;47.508;19.376;2023-12-29T07:53:02;13.77;;;10.93;;
39094;SDS011;24840;47.508;19.376;2023-12-29T07:55:29;13.07;;;10.63;;
39094;SDS011;24840;47.508;19.376;2023-12-29T07:57:55;26.23;;;11.40;;
39094;SDS011;24840;47.508;19.376;2023-12-29T08:00:21;14.80;;;11.50;;
39094;SDS011;24840;47.508;19.376;2023-12-29T08:02:48;15.03;;;11.63;;
39094;SDS011;24840;47.508;19.376;2023-12-29T08:05:14;21.10;;;12.40;;
39094;SDS011;24840;47.508;19.376;2023-12-29T08:07:42;13.97;;;11.33;;
39094;SDS011;24840;47.508;19.376;2023-12-29T08:10:08;16.03;;;12.77;;
39094;SDS011;24840;47.508;19.376;2023-12-29T08:12:34;16.90;;;12.27;;
39094;SDS011;24840;47.508;19.376;2023-12-29T08:15:01;17.10;;;13.20;;
39094;SDS011;24840;47.508;19.376;2023-12-29T08:17:30;21.63;;;14.27;;
39094;SDS011;24840;47.508;19.376;2023-12-29T08:19:57;17.27;;;13.93;;
39094;SDS011;24840;47.508;19.376;2023-12-29T08:22:23;18.37;;;12.93;;
39094;SDS011;24840;47.508;19.376;2023-12-29T08:24:49;19.43;;;14.43;;
39094;SDS011;24840;47.508;19.376;2023-12-29T08:27:15;15.70;;;13.17;;
39094;SDS011;24840;47.508;19.376;2023-12-29T08:29:47;16.80;;;13.90;;
39094;SDS011;24840;47.508;19.376;2023-12-29T08:32:14;18.30;;;14.67;;
39094;SDS011;24840;47.508;19.376;2023-12-29T08:34:40;19.43;;;15.13;;
39094;SDS011;24840;47.508;19.376;2023-12-29T08:37:06;17.80;;;15.77;;
39094;SDS011;24840;47.508;19.376;2023-12-29T08:39:32;20.20;;;16.30;;
39094;SDS011;24840;47.508;19.376;2023-12-29T08:41:58;31.20;;;17.03;;
39094;SDS011;24840;47.508;19.376;2023-12-29T08:44:24;19.23;;;16.00;;
39094;SDS011;24840;47.508;19.376;2023-12-29T08:46:50;20.67;;;16.03;;
39094;SDS011;24840;47.508;19.376;2023-12-29T08:49:16;22.27;;;16.33;;
39094;SDS011;24840;47.508;19.376;2023-12-29T08:51:42;30.83;;;21.60;;
39094;SDS011;24840;47.508;19.376;2023-12-29T08:54:08;22.47;;;17.30;;
39094;SDS011;24840;47.508;19.376;2023-12-29T08:56:34;23.27;;;15.33;;
39094;SDS011;24840;47.508;19.376;2023-12-29T08:59:00;21.23;;;16.43;;
39094;SDS011;24840;47.508;19.376;2023-12-29T09:01:26;17.13;;;14.23;;
39094;SDS011;24840;47.508;19.376;2023-12-29T09:03:52;32.73;;;24.30;;
39094;SDS011;24840;47.508;19.376;2023-12-29T09:06:18;28.20;;;18.67;;
39094;SDS011;24840;47.508;19.376;2023-12-29T09:08:45;31.87;;;26.20;;
39094;SDS011;24840;47.508;19.376;2023-12-29T09:11:11;28.53;;;21.50;;
39094;SDS011;24840;47.508;19.376;2023-12-29T09:13:37;27.00;;;20.70;;
39094;SDS011;24840;47.508;19.376;2023-12-29T09:16:03;25.73;;;19.57;;
39094;SDS011;24840;47.508;19.376;2023-12-29T09:18:29;24.53;;;19.33;;
39094;SDS011;24840;47.508;19.376;2023-12-29T09:20:58;21.77;;;17.97;;
39094;SDS011;24840;47.508;19.376;2023-12-29T09:23:24;19.07;;;15.33;;
39094;SDS011;24840;47.508;19.376;2023-12-29T09:25:51;22.70;;;18.33;;
39094;SDS011;24840;47.508;19.376;2023-12-29T09:28:33;22.23;;;17.40;;
39094;SDS011;24840;47.508;19.376;2023-12-29T09:30:59;23.33;;;18.13;;
39094;SDS011;24840;47.508;19.376;2023-12-29T09:33:26;19.27;;;15.80;;
39094;SDS011;24840;47.508;19.376;2023-12-29T09:35:52;19.00;;;14.87;;
39094;SDS011;24840;47.508;19.376;2023-12-29T09:38:18;17.97;;;15.33;;
39094;SDS011;24840;47.508;19.376;2023-12-29T09:40:45;17.67;;;14.53;;
39094;SDS011;24840;47.508;19.376;2023-12-29T09:43:11;17.70;;;14.57;;
39094;SDS011;24840;47.508;19.376;2023-12-29T09:45:38;15.57;;;12.57;;
39094;SDS011;24840;47.508;19.376;2023-12-29T09:48:08;20.13;;;14.23;;
39094;SDS011;24840;47.508;19.376;2023-12-29T09:50:37;15.67;;;12.00;;
39094;SDS011;24840;47.508;19.376;2023-12-29T09:53:03;17.07;;;12.97;;
39094;SDS011;24840;47.508;19.376;2023-12-29T09:55:29;17.33;;;12.53;;
39094;SDS011;24840;47.508;19.376;2023-12-29T09:57:56;16.70;;;12.00;;
39094;SDS011;24840;47.508;19.376;2023-12-29T10:00:24;13.30;;;10.45;;
39094;SDS011;24840;47.508;19.376;2023-12-29T10:02:51;14.17;;;10.40;;
39094;SDS011;24840;47.508;19.376;2023-12-29T10:05:18;17.87;;;12.47;;
39094;SDS011;24840;47.508;19.376;2023-12-29T10:07:44;15.35;;;11.05;;
39094;SDS011;24840;47.508;19.376;2023-12-29T10:10:13;14.80;;;11.37;;
39094;SDS011;24840;47.508;19.376;2023-12-29T10:12:40;14.10;;;10.65;;
39094;SDS011;24840;47.508;19.376;2023-12-29T10:15:12;12.23;;;10.90;;
39094;SDS011;24840;47.508;19.376;2023-12-29T10:20:44;13.77;;;10.27;;
39094;SDS011;24840;47.508;19.376;2023-12-29T10:23:06;12.60;;;9.57;;
39094;SDS011;24840;47.508;19.376;2023-12-29T10:25:34;13.05;;;10.18;;
39094;SDS011;24840;47.508;19.376;2023-12-29T10:28:03;12.73;;;8.98;;
39094;SDS011;24840;47.508;19.376;2023-12-29T10:30:30;11.90;;;9.20;;
39094;SDS011;24840;47.508;19.376;2023-12-29T10:32:56;23.42;;;10.57;;
39094;SDS011;24840;47.508;19.376;2023-12-29T10:35:25;12.82;;;9.25;;
39094;SDS011;24840;47.508;19.376;2023-12-29T10:37:51;11.85;;;8.07;;
39094;SDS011;24840;47.508;19.376;2023-12-29T10:40:19;10.80;;;8.05;;
39094;SDS011;24840;47.508;19.376;2023-12-29T10:42:53;10.85;;;8.18;;
39094;SDS011;24840;47.508;19.376;2023-12-29T10:45:19;10.15;;;8.32;;
39094;SDS011;24840;47.508;19.376;2023-12-29T10:47:46;10.98;;;8.43;;
39094;SDS011;24840;47.508;19.376;2023-12-29T10:50:12;10.68;;;8.38;;
39094;SDS011;24840;47.508;19.376;2023-12-29T10:52:38;11.18;;;8.70;;
39094;SDS011;24840;47.508;19.376;2023-12-29T10:55:06;11.20;;;8.55;;
39094;SDS011;24840;47.508;19.376;2023-12-29T10:57:32;10.65;;;8.30;;
39094;SDS011;24840;47.508;19.376;2023-12-29T10:59:59;13.32;;;9.88;;
39094;SDS011;24840;47.508;19.376;2023-12-29T11:02:25;12.20;;;9.00;;
39094;SDS011;24840;47.508;19.376;2023-12-29T11:04:55;13.27;;;8.40;;
39094;SDS011;24840;47.508;19.376;2023-12-29T11:07:40;17.13;;;11.00;;
39094;SDS011;24840;47.508;19.376;2023-12-29T11:10:07;11.95;;;9.90;;
39094;SDS011;24840;47.508;19.376;2023-12-29T11:12:40;19.10;;;10.70;;
39094;SDS011;24840;47.508;19.376;2023-12-29T11:15:06;14.20;;;10.70;;
39094;SDS011;24840;47.508;19.376;2023-12-29T11:17:35;13.60;;;10.88;;
39094;SDS011;24840;47.508;19.376;2023-12-29T11:20:02;12.25;;;10.95;;
39094;SDS011;24840;47.508;19.376;2023-12-29T11:22:29;16.92;;;10.52;;
39094;SDS011;24840;47.508;19.376;2023-12-29T11:24:58;16.02;;;11.18;;
39094;SDS011;24840;47.508;19.376;2023-12-29T11:27:25;14.40;;;10.52;;
39094;SDS011;24840;47.508;19.376;2023-12-29T11:29:53;15.73;;;12.35;;
39094;SDS011;24840;47.508;19.376;2023-12-29T11:32:20;14.40;;;11.45;;
39094;SDS011;24840;47.508;19.376;2023-12-29T11:34:53;13.25;;;10.90;;
39094;SDS011;24840;47.508;19.376;2023-12-29T11:37:31;16.23;;;11.93;;
39094;SDS011;24840;47.508;19.376;2023-12-29T11:42:27;15.82;;;12.30;;
39094;SDS011;24840;47.508;19.376;2023-12-29T11:44:55;16.35;;;13.23;;
39094;SDS011;24840;47.508;19.376;2023-12-29T11:47:34;15.00;;;12.18;;
39094;SDS011;24840;47.508;19.376;2023-12-29T11:50:01;16.02;;;12.25;;
39094;SDS011;24840;47.508;19.376;2023-12-29T11:57:31;15.30;;;12.65;;
39094;SDS011;24840;47.508;19.376;2023-12-29T12:02:27;15.93;;;12.68;;
39094;SDS011;24840;47.508;19.376;2023-12-29T12:04:53;12.38;;;11.07;;
39094;SDS011;24840;47.508;19.376;2023-12-29T12:12:44;13.80;;;10.70;;
39094;SDS011;24840;47.508;19.376;2023-12-29T12:18:10;14.93;;;11.13;;
39094;SDS011;24840;47.508;19.376;2023-12-29T12:20:36;12.77;;;10.27;;
39094;SDS011;24840;47.508;19.376;2023-12-29T12:23:05;14.32;;;10.50;;
39094;SDS011;24840;47.508;19.376;2023-12-29T12:25:34;13.32;;;9.88;;
39094;SDS011;24840;47.508;19.376;2023-12-29T12:28:05;14.90;;;10.63;;
39094;SDS011;24840;47.508;19.376;2023-12-29T12:30:32;10.60;;;8.35;;
39094;SDS011;24840;47.508;19.376;2023-12-29T12:33:02;12.23;;;8.40;;
39094;SDS011;24840;47.508;19.376;2023-12-29T12:35:29;11.80;;;9.43;;
39094;SDS011;24840;47.508;19.376;2023-12-29T12:40:33;16.35;;;10.75;;
39094;SDS011;24840;47.508;19.376;2023-12-29T12:43:00;17.88;;;11.73;;
39094;SDS011;24840;47.508;19.376;2023-12-29T12:45:26;14.20;;;11.40;;
39094;SDS011;24840;47.508;19.376;2023-12-29T12:47:54;17.40;;;11.27;;
39094;SDS011;24840;47.508;19.376;2023-12-29T12:50:20;13.20;;;9.70;;
39094;SDS011;24840;47.508;19.376;2023-12-29T12:52:47;12.15;;;9.93;;
39094;SDS011;24840;47.508;19.376;2023-12-29T12:55:13;12.32;;;9.30;;
39094;SDS011;24840;47.508;19.376;2023-12-29T12:57:40;11.57;;;8.32;;
39094;SDS011;24840;47.508;19.376;2023-12-29T13:00:06;13.02;;;9.35;;
39094;SDS011;24840;47.508;19.376;2023-12-29T13:02:34;10.25;;;8.30;;
39094;SDS011;24840;47.508;19.376;2023-12-29T13:05:00;14.32;;;9.05;;
39094;SDS011;24840;47.508;19.376;2023-12-29T13:07:30;11.85;;;8.90;;
39094;SDS011;24840;47.508;19.376;2023-12-29T13:09:56;12.18;;;8.98;;
39094;SDS011;24840;47.508;19.376;2023-12-29T13:12:23;13.23;;;9.57;;
39094;SDS011;24840;47.508;19.376;2023-12-29T13:14:49;17.77;;;10.07;;
39094;SDS011;24840;47.508;19.376;2023-12-29T13:17:16;14.43;;;8.77;;
39094;SDS011;24840;47.508;19.376;2023-12-29T13:19:45;10.05;;;9.05;;
39094;SDS011;24840;47.508;19.376;2023-12-29T13:22:12;11.50;;;9.85;;
39094;SDS011;24840;47.508;19.376;2023-12-29T13:24:46;12.75;;;10.30;;
39094;SDS011;24840;47.508;19.376;2023-12-29T13:27:12;13.85;;;10.35;;
39094;SDS011;24840;47.508;19.376;2023-12-29T13:29:39;11.77;;;10.10;;
39094;SDS011;24840;47.508;19.376;2023-12-29T13:32:15;10.82;;;9.55;;
39094;SDS011;24840;47.508;19.376;2023-12-29T13:42:19;17.48;;;11.13;;
39094;SDS011;24840;47.508;19.376;2023-12-29T13:44:45;15.95;;;9.57;;
39094;SDS011;24840;47.508;19.376;2023-12-29T13:47:12;14.93;;;11.82;;
39094;SDS011;24840;47.508;19.376;2023-12-29T13:49:39;13.85;;;10.85;;
39094;SDS011;24840;47.508;19.376;2023-12-29T13:52:05;17.02;;;11.02;;
39094;SDS011;24840;47.508;19.376;2023-12-29T13:54:40;16.10;;;10.95;;
39094;SDS011;24840;47.508;19.376;2023-12-29T13:57:07;16.00;;;11.60;;
39094;SDS011;24840;47.508;19.376;2023-12-29T13:59:34;16.10;;;12.20;;
39094;SDS011;24840;47.508;19.376;2023-12-29T14:02:42;19.50;;;11.75;;
39094;SDS011;24840;47.508;19.376;2023-12-29T14:05:05;20.50;;;11.57;;
39094;SDS011;24840;47.508;19.376;2023-12-29T14:07:35;15.27;;;10.52;;
39094;SDS011;24840;47.508;19.376;2023-12-29T14:10:02;16.55;;;12.38;;
39094;SDS011;24840;47.508;19.376;2023-12-29T14:12:28;18.73;;;10.82;;
39094;SDS011;24840;47.508;19.376;2023-12-29T14:14:54;25.10;;;12.00;;
39094;SDS011;24840;47.508;19.376;2023-12-29T14:17:21;15.00;;;11.20;;
39094;SDS011;24840;47.508;19.376;2023-12-29T14:19:47;21.92;;;9.65;;
39094;SDS011;24840;47.508;19.376;2023-12-29T14:22:20;14.20;;;12.00;;
39094;SDS011;24840;47.508;19.376;2023-12-29T14:25:09;13.68;;;11.15;;
39094;SDS011;24840;47.508;19.376;2023-12-29T14:27:34;14.80;;;9.75;;
39094;SDS011;24840;47.508;19.376;2023-12-29T14:30:00;10.55;;;8.73;;
39094;SDS011;24840;47.508;19.376;2023-12-29T14:32:27;10.32;;;8.35;;
39094;SDS011;24840;47.508;19.376;2023-12-29T14:34:54;14.05;;;9.35;;
39094;SDS011;24840;47.508;19.376;2023-12-29T14:37:22;14.05;;;9.35;;
39094;SDS011;24840;47.508;19.376;2023-12-29T14:39:49;13.85;;;8.95;;
39094;SDS011;24840;47.508;19.376;2023-12-29T14:42:15;16.38;;;12.75;;
39094;SDS011;24840;47.508;19.376;2023-12-29T14:44:45;17.17;;;11.57;;